Time;durP1;ratioP1;P1;durP2;ratioP2;P2;SDS_P1;SDS_P2;PMS_P1;PMS_P2;Temp;Humidity;BMP_temperature;BMP_pressure;BME280_temperature;BME280_humidity;BME280_pressure;Samples;Min_cycle;Max_cycle;Signal;HPM_P1;HPM_P2
2020/12/16 00:01:45;;;;;;;1.42;1.33;;;11.00;78.70;;;;;;5100192;28;20028;-46
2020/12/16 00:04:12;;;;;;;2.35;1.42;;;11.10;78.50;;;;;;5082439;28;20025;-45
2020/12/16 00:06:38;;;;;;;1.53;1.43;;;11.00;78.90;;;;;;5071845;28;20043;-45
2020/12/16 00:09:04;;;;;;;2.53;1.80;;;11.00;78.40;;;;;;5102297;28;20024;-44
2020/12/16 00:11:30;;;;;;;1.55;1.45;;;11.00;78.40;;;;;;5102269;28;20103;-46
2020/12/16 00:13:56;;;;;;;2.35;1.63;;;11.00;78.20;;;;;;5083892;28;20024;-45
2020/12/16 00:16:23;;;;;;;8.75;1.95;;;11.00;78.80;;;;;;5101976;28;20024;-45
2020/12/16 00:18:49;;;;;;;1.90;1.60;;;11.00;78.40;;;;;;5102270;28;20070;-45
2020/12/16 00:21:23;;;;;;;1.52;1.42;;;11.00;78.50;;;;;;5102222;28;20032;-45
2020/12/16 00:23:49;;;;;;;3.03;1.67;;;11.00;78.60;;;;;;5101778;28;20188;-46
2020/12/16 00:26:15;;;;;;;3.28;1.75;;;11.00;78.70;;;;;;5083603;28;20024;-45
2020/12/16 00:28:41;;;;;;;1.50;1.40;;;11.00;78.80;;;;;;5083967;28;20055;-45
2020/12/16 00:31:08;;;;;;;2.35;1.90;;;11.00;78.40;;;;;;5102318;28;20154;-46
2020/12/16 00:33:34;;;;;;;2.80;1.50;;;11.00;78.30;;;;;;5084607;28;20105;-46
2020/12/16 00:36:01;;;;;;;3.03;1.75;;;11.00;78.10;;;;;;5084732;28;20058;-44
2020/12/16 00:38:27;;;;;;;2.13;1.80;;;11.00;78.30;;;;;;5101999;28;20032;-45
2020/12/16 00:40:53;;;;;;;2.25;1.48;;;11.00;78.10;;;;;;5101987;28;20024;-45
2020/12/16 00:43:19;;;;;;;2.40;1.45;;;11.00;78.10;;;;;;5104412;28;20754;-45
2020/12/16 00:45:46;;;;;;;2.08;1.88;;;11.00;77.90;;;;;;5105898;28;20020;-46
2020/12/16 00:48:12;;;;;;;2.10;1.90;;;11.00;77.90;;;;;;5105771;28;20067;-45
2020/12/16 00:50:38;;;;;;;3.47;1.88;;;11.00;78.00;;;;;;5105595;28;20054;-45
2020/12/16 00:53:04;;;;;;;1.77;1.63;;;11.00;78.20;;;;;;5105567;28;20131;-45
2020/12/16 00:55:30;;;;;;;1.70;1.60;;;11.00;77.90;;;;;;5105671;28;20028;-45
2020/12/16 00:57:58;;;;;;;1.70;1.60;;;11.00;78.50;;;;;;5105652;28;20062;-44
2020/12/16 01:00:23;;;;;;;;;;;11.00;77.90;;;;;;5106161;28;20024;-45
2020/12/16 01:02:50;;;;;;;2.17;1.40;;;10.90;77.80;;;;;;5104466;28;19908;-45
2020/12/16 01:05:17;;;;;;;2.00;1.80;;;10.90;77.90;;;;;;5105432;28;20028;-45
2020/12/16 01:07:43;;;;;;;1.60;1.50;;;10.90;77.60;;;;;;5087094;28;20060;-44
2020/12/16 01:10:10;;;;;;;1.85;1.63;;;10.90;77.90;;;;;;5105386;28;20055;-45
2020/12/16 01:12:40;;;;;;;1.98;1.77;;;10.90;78.20;;;;;;5104724;28;20715;-45
2020/12/16 01:15:10;;;;;;;1.70;1.60;;;10.90;77.80;;;;;;5105580;28;20024;-44
2020/12/16 01:17:40;;;;;;;1.63;1.52;;;10.90;77.70;;;;;;5116997;28;20048;-44
2020/12/16 01:20:07;;;;;;;1.67;1.55;;;10.90;77.60;;;;;;5138145;27;20030;-44
2020/12/16 01:22:40;;;;;;;3.10;1.48;;;10.90;77.60;;;;;;5127236;27;20035;-45
2020/12/16 01:25:06;;;;;;;1.50;1.40;;;10.90;77.50;;;;;;5134104;27;20032;-45
2020/12/16 01:27:32;;;;;;;1.83;1.67;;;10.90;77.50;;;;;;5107028;28;20031;-45
2020/12/16 01:29:59;;;;;;;2.33;1.90;;;10.90;77.60;;;;;;5125374;28;20027;-45
2020/12/16 01:32:25;;;;;;;2.57;1.63;;;10.90;77.70;;;;;;5117305;28;20303;-45
2020/12/16 01:34:51;;;;;;;2.42;1.80;;;10.90;77.60;;;;;;5104794;28;20028;-45
2020/12/16 01:37:17;;;;;;;2.15;1.80;;;10.90;77.50;;;;;;5129631;27;20023;-45
2020/12/16 01:39:43;;;;;;;2.40;1.58;;;10.90;77.30;;;;;;5142600;27;20027;-45
2020/12/16 01:42:10;;;;;;;1.73;1.63;;;10.90;77.60;;;;;;5126902;27;20032;-45
2020/12/16 01:44:36;;;;;;;1.67;1.58;;;10.90;77.50;;;;;;5106367;28;20636;-44
2020/12/16 01:47:02;;;;;;;2.65;1.70;;;10.90;77.30;;;;;;5124766;28;20035;-45
2020/12/16 01:49:28;;;;;;;3.73;1.73;;;10.90;77.40;;;;;;5132055;27;20498;-45
2020/12/16 01:51:59;;;;;;;2.08;1.73;;;10.90;77.40;;;;;;5145730;27;20095;-46
2020/12/16 01:54:25;;;;;;;1.98;1.77;;;10.90;77.30;;;;;;5138929;27;20024;-46
2020/12/16 01:56:55;;;;;;;1.92;1.75;;;10.90;77.40;;;;;;5125022;28;20043;-44
2020/12/16 01:59:22;;;;;;;1.65;1.55;;;10.90;77.50;;;;;;5124877;28;20023;-44
2020/12/16 02:01:53;;;;;;;2.30;1.73;;;10.90;77.30;;;;;;5108843;27;20099;-45
2020/12/16 02:04:25;;;;;;;1.70;1.60;;;10.80;77.20;;;;;;5116500;28;20031;-44
2020/12/16 02:06:51;;;;;;;1.80;1.70;;;10.80;77.30;;;;;;5102827;28;20032;-43
2020/12/16 02:09:19;;;;;;;3.30;1.85;;;10.80;77.20;;;;;;5102937;28;20024;-43
2020/12/16 02:11:45;;;;;;;2.05;1.85;;;10.80;77.20;;;;;;5104265;28;20443;-44
2020/12/16 02:14:12;;;;;;;2.63;1.90;;;10.80;77.20;;;;;;5104047;28;20024;-44
2020/12/16 02:16:38;;;;;;;2.40;1.73;;;10.80;77.20;;;;;;5107974;28;20108;-46
2020/12/16 02:19:05;;;;;;;1.77;1.63;;;10.80;77.30;;;;;;5128066;27;20317;-45
2020/12/16 02:21:31;;;;;;;2.00;1.75;;;10.80;77.20;;;;;;5125783;27;20027;-46
2020/12/16 02:24:15;;;;;;;2.38;1.83;;;10.80;77.20;;;;;;5140606;27;20031;-45
2020/12/16 02:26:41;;;;;;;1.83;1.63;;;10.80;77.20;;;;;;5122938;28;20020;-45
2020/12/16 02:29:08;;;;;;;2.20;1.83;;;10.80;77.20;;;;;;5124336;28;20113;-44
2020/12/16 02:31:36;;;;;;;1.83;1.63;;;10.80;77.30;;;;;;5123601;28;20107;-44
2020/12/16 02:34:02;;;;;;;;;;;10.80;77.20;;;;;;5103909;28;20111;-45
2020/12/16 02:36:28;;;;;;;1.67;1.50;;;10.80;77.50;;;;;;5110717;28;19960;-45
2020/12/16 02:38:54;;;;;;;1.90;1.80;;;10.80;77.30;;;;;;5123935;28;20028;-45
2020/12/16 02:41:22;;;;;;;2.05;1.70;;;10.80;77.30;;;;;;5124036;27;20026;-43
2020/12/16 02:43:48;;;;;;;2.53;2.00;;;10.80;77.30;;;;;;5123603;28;20389;-45
2020/12/16 02:46:14;;;;;;;2.05;1.55;;;10.80;77.10;;;;;;5123921;28;20035;-45
2020/12/16 02:48:40;;;;;;;2.03;1.83;;;10.80;77.20;;;;;;5124101;28;20118;-44
2020/12/16 02:51:06;;;;;;;2.03;1.80;;;10.70;77.30;;;;;;5144326;27;20031;-45
2020/12/16 02:53:33;;;;;;;2.47;1.70;;;10.70;77.20;;;;;;5144171;27;20045;-45
2020/12/16 02:55:59;;;;;;;2.13;1.70;;;10.70;77.20;;;;;;5106684;28;20024;-45
2020/12/16 02:58:26;;;;;;;2.45;1.90;;;10.70;77.20;;;;;;5123773;28;20020;-45
2020/12/16 03:00:52;;;;;;;1.98;1.70;;;10.70;77.20;;;;;;5123659;28;20032;-44
2020/12/16 03:03:19;;;;;;;1.23;1.10;;;10.70;77.30;;;;;;5136642;27;20078;-45
2020/12/16 03:05:45;;;;;;;2.15;1.88;;;10.70;77.30;;;;;;5130329;27;20032;-46
2020/12/16 03:08:11;;;;;;;1.90;1.80;;;10.70;77.20;;;;;;5123354;28;20039;-45
2020/12/16 03:10:37;;;;;;;2.33;1.83;;;10.70;77.30;;;;;;5123704;28;20057;-45
2020/12/16 03:13:04;;;;;;;2.20;2.00;;;10.70;77.30;;;;;;5108567;27;20109;-44
2020/12/16 03:15:31;;;;;;;2.08;1.80;;;10.70;77.40;;;;;;5143696;27;20027;-45
2020/12/16 03:17:57;;;;;;;2.22;2.03;;;10.70;77.50;;;;;;5143796;27;20055;-45
2020/12/16 03:20:23;;;;;;;2.63;2.03;;;10.70;77.60;;;;;;5142218;27;20032;-45
2020/12/16 03:22:49;;;;;;;2.17;1.75;;;10.70;77.30;;;;;;5125505;27;20035;-45
2020/12/16 03:25:16;;;;;;;2.13;1.92;;;10.70;77.50;;;;;;5130480;27;20168;-45
2020/12/16 03:27:42;;;;;;;2.08;1.73;;;10.70;77.50;;;;;;5123313;28;20039;-45
2020/12/16 03:30:08;;;;;;;2.88;1.95;;;10.70;77.50;;;;;;5123214;28;20051;-46
2020/12/16 03:32:34;;;;;;;1.75;1.30;;;10.70;77.50;;;;;;5114062;28;20434;-46
2020/12/16 03:35:02;;;;;;;2.22;1.95;;;10.70;77.50;;;;;;5102624;28;20079;-45
2020/12/16 03:37:28;;;;;;;2.33;2.00;;;10.70;77.40;;;;;;5118418;27;20026;-45
2020/12/16 03:39:54;;;;;;;2.22;2.03;;;10.70;77.50;;;;;;5143608;27;20048;-45
2020/12/16 03:42:20;;;;;;;2.15;1.95;;;10.70;77.50;;;;;;5143493;27;20023;-44
2020/12/16 03:44:47;;;;;;;2.72;2.28;;;10.70;77.40;;;;;;5143391;27;20027;-44
2020/12/16 03:47:14;;;;;;;2.30;2.08;;;10.70;78.20;;;;;;5143528;27;20571;-45
2020/12/16 03:49:41;;;;;;;1.88;1.77;;;10.70;77.50;;;;;;5140233;27;20095;-45
2020/12/16 03:52:07;;;;;;;2.60;2.20;;;10.70;77.50;;;;;;5143593;27;20035;-45
2020/12/16 03:54:33;;;;;;;2.58;2.13;;;10.70;77.40;;;;;;5135797;27;20024;-44
2020/12/16 03:56:59;;;;;;;2.17;1.98;;;10.70;77.50;;;;;;5122959;28;20084;-46
2020/12/16 03:59:25;;;;;;;2.30;1.95;;;10.70;78.20;;;;;;5122679;28;20072;-45
2020/12/16 04:01:52;;;;;;;2.67;1.90;;;10.70;77.50;;;;;;5125829;28;20083;-45
2020/12/16 04:04:18;;;;;;;2.03;1.83;;;10.60;77.40;;;;;;5143273;28;20470;-44
2020/12/16 04:06:44;;;;;;;2.63;2.17;;;10.60;77.30;;;;;;5143243;28;20019;-44
2020/12/16 04:09:12;;;;;;;2.75;2.10;;;10.60;77.40;;;;;;5143148;28;20491;-45
2020/12/16 04:11:38;;;;;;;2.50;1.90;;;10.60;77.40;;;;;;5131237;28;20019;-45
2020/12/16 04:14:04;;;;;;;2.40;2.10;;;10.60;77.40;;;;;;5122553;28;20027;-45
2020/12/16 04:16:32;;;;;;;2.72;2.20;;;10.70;77.40;;;;;;5120262;28;20040;-45
2020/12/16 04:18:59;;;;;;;2.33;1.90;;;10.60;77.40;;;;;;5129654;27;20043;-46
2020/12/16 04:21:25;;;;;;;2.40;2.20;;;10.60;77.40;;;;;;5147334;27;20034;-44
2020/12/16 04:23:51;;;;;;;2.65;1.98;;;10.60;77.40;;;;;;5133951;27;20024;-46
2020/12/16 04:26:17;;;;;;;3.17;2.10;;;10.60;77.40;;;;;;5126602;28;20023;-45
2020/12/16 04:28:43;;;;;;;2.63;2.20;;;10.60;77.40;;;;;;5126601;28;20046;-44
2020/12/16 04:31:10;;;;;;;2.45;2.17;;;10.60;77.50;;;;;;5126260;28;20043;-45
2020/12/16 04:33:36;;;;;;;2.38;2.17;;;10.60;77.40;;;;;;5108316;28;20024;-45
2020/12/16 04:36:02;;;;;;;2.20;2.00;;;10.60;77.30;;;;;;5126462;28;20030;-46
2020/12/16 04:38:29;;;;;;;2.58;2.38;;;10.60;77.40;;;;;;5126459;28;20065;-45
2020/12/16 04:40:55;;;;;;;2.50;2.30;;;10.60;77.40;;;;;;5126530;28;20031;-45
2020/12/16 04:43:22;;;;;;;2.47;2.17;;;10.60;77.40;;;;;;5126578;28;20015;-45
2020/12/16 04:45:49;;;;;;;2.30;2.05;;;10.60;77.50;;;;;;5126222;28;20062;-45
2020/12/16 04:48:16;;;;;;;3.00;2.45;;;10.60;77.50;;;;;;5126382;27;20031;-45
2020/12/16 04:50:43;;;;;;;2.53;2.33;;;10.60;77.40;;;;;;5108179;28;20063;-45
2020/12/16 04:53:12;;;;;;;3.20;2.20;;;10.60;77.40;;;;;;5107661;28;20096;-44
2020/12/16 04:55:39;;;;;;;2.85;2.10;;;10.60;77.40;;;;;;5125978;28;20039;-45
2020/12/16 04:58:05;;;;;;;2.40;2.07;;;10.60;77.40;;;;;;5126189;28;20518;-44
2020/12/16 05:00:32;;;;;;;3.30;2.10;;;10.60;77.30;;;;;;5131821;27;20267;-44
2020/12/16 05:03:00;;;;;;;3.25;2.03;;;10.60;77.40;;;;;;5134018;27;20042;-45
2020/12/16 05:05:26;;;;;;;2.50;2.20;;;10.60;77.30;;;;;;5107412;28;20020;-45
2020/12/16 05:07:52;;;;;;;2.83;2.20;;;10.50;77.30;;;;;;5125956;28;20036;-43
2020/12/16 05:10:34;;;;;;;2.42;2.20;;;10.60;77.30;;;;;;5126067;28;20087;-44
2020/12/16 05:13:08;;;;;;;2.40;2.20;;;10.50;77.30;;;;;;5125955;28;20027;-48
2020/12/16 05:15:35;;;;;;;3.15;2.35;;;10.50;77.30;;;;;;5125881;28;20079;-45
2020/12/16 05:18:08;;;;;;;3.55;2.50;;;10.50;77.30;;;;;;5145456;27;20138;-45
2020/12/16 05:20:35;;;;;;;2.78;2.28;;;10.50;77.30;;;;;;5145685;27;20023;-45
2020/12/16 05:23:02;;;;;;;;;;;10.50;77.30;;;;;;5128472;27;20160;-44
2020/12/16 05:25:28;;;;;;;3.10;2.40;;;10.50;77.50;;;;;;5092281;28;19930;-44
2020/12/16 05:27:54;;;;;;;2.42;2.22;;;10.50;77.30;;;;;;5104742;28;20039;-43
2020/12/16 05:30:21;;;;;;;3.03;2.30;;;10.50;77.30;;;;;;5105042;28;20105;-44
2020/12/16 05:32:47;;;;;;;2.28;2.08;;;10.50;77.30;;;;;;5126899;27;20024;-45
2020/12/16 05:35:20;;;;;;;2.70;2.20;;;10.50;77.30;;;;;;5146062;27;20058;-44
2020/12/16 05:37:46;;;;;;;2.17;1.98;;;10.50;78.10;;;;;;5144540;27;20027;-44
2020/12/16 05:40:14;;;;;;;2.80;1.90;;;10.50;77.30;;;;;;5126808;27;20019;-44
2020/12/16 05:42:41;;;;;;;2.42;1.77;;;10.50;77.30;;;;;;5125260;28;20039;-44
2020/12/16 05:45:09;;;;;;;2.42;2.13;;;10.50;77.30;;;;;;5125404;28;20023;-44
2020/12/16 05:47:39;;;;;;;2.55;2.20;;;10.50;77.40;;;;;;5125031;28;20028;-44
2020/12/16 05:50:16;;;;;;;2.47;2.13;;;10.50;77.40;;;;;;5137579;27;20051;-44
2020/12/16 05:52:42;;;;;;;2.92;2.45;;;10.50;77.40;;;;;;5145871;27;20056;-44
2020/12/16 05:55:08;;;;;;;2.40;2.05;;;10.50;77.40;;;;;;5133406;27;20028;-44
2020/12/16 05:57:34;;;;;;;2.55;2.35;;;10.50;77.40;;;;;;5124452;28;20038;-44
2020/12/16 06:00:07;;;;;;;2.65;2.17;;;10.50;77.40;;;;;;5106775;28;20020;-44
2020/12/16 06:02:44;;;;;;;2.70;2.35;;;10.50;77.40;;;;;;5134037;27;20045;-45
2020/12/16 06:05:11;;;;;;;2.65;2.03;;;10.50;77.40;;;;;;5145547;27;20057;-44
2020/12/16 06:07:47;;;;;;;1.80;1.65;;;10.50;77.40;;;;;;5145032;27;20039;-43
2020/12/16 06:10:14;;;;;;;2.38;2.13;;;10.50;77.40;;;;;;5145645;27;20054;-43
2020/12/16 06:12:41;;;;;;;3.75;2.38;;;10.50;77.40;;;;;;5145516;27;20050;-44
2020/12/16 06:15:11;;;;;;;;;;;10.50;77.50;;;;;;5129547;27;20122;-44
2020/12/16 06:17:44;;;;;;;2.45;2.17;;;10.50;77.40;;;;;;5126542;27;20711;-44
2020/12/16 06:20:15;;;;;;;2.05;1.88;;;10.40;77.40;;;;;;5132490;27;20023;-45
2020/12/16 06:22:43;;;;;;;2.22;2.03;;;10.40;77.50;;;;;;5124618;28;20043;-44
2020/12/16 06:25:13;;;;;;;2.30;2.08;;;10.50;77.50;;;;;;5124613;28;20028;-44
2020/12/16 06:27:44;;;;;;;3.13;2.38;;;10.50;77.50;;;;;;5124086;28;20051;-44
2020/12/16 06:30:26;;;;;;;2.55;2.20;;;10.40;77.40;;;;;;5124670;28;20054;-44
2020/12/16 06:33:12;;;;;;;2.42;2.20;;;10.40;77.40;;;;;;5112779;28;20024;-43
2020/12/16 06:35:40;;;;;;;2.85;2.28;;;10.40;77.40;;;;;;5082490;28;20040;-44
2020/12/16 06:38:22;;;;;;;3.22;2.58;;;10.40;77.50;;;;;;5103683;28;20703;-44
2020/12/16 06:40:49;;;;;;;3.92;2.40;;;10.40;77.50;;;;;;5107265;28;20077;-44
2020/12/16 06:43:31;;;;;;;2.70;2.30;;;10.40;77.50;;;;;;5105804;28;20015;-44
2020/12/16 06:46:01;;;;;;;2.30;2.05;;;10.40;77.60;;;;;;5124194;28;20053;-45
2020/12/16 06:48:39;;;;;;;2.33;2.00;;;10.40;77.50;;;;;;5123069;28;20043;-45
2020/12/16 06:51:25;;;;;;;2.60;2.03;;;10.40;77.50;;;;;;5085629;28;20091;-43
2020/12/16 06:54:14;;;;;;;3.47;2.40;;;10.40;77.50;;;;;;5104846;28;20028;-47
2020/12/16 06:56:42;;;;;;;2.55;2.28;;;10.40;77.50;;;;;;5123105;28;20011;-46
2020/12/16 06:59:08;;;;;;;2.40;2.00;;;10.40;77.50;;;;;;5123892;28;20035;-44
2020/12/16 07:01:35;;;;;;;2.10;2.00;;;10.40;77.40;;;;;;5124675;27;20034;-44
2020/12/16 07:04:01;;;;;;;2.22;2.03;;;10.40;77.50;;;;;;5125998;27;20035;-44
2020/12/16 07:06:30;;;;;;;2.92;2.42;;;10.40;77.60;;;;;;5137438;27;20024;-44
2020/12/16 07:09:18;;;;;;;2.72;2.22;;;10.40;77.60;;;;;;5123265;28;20055;-45
2020/12/16 07:11:45;;;;;;;2.30;2.00;;;10.40;77.60;;;;;;5123080;28;20047;-44
2020/12/16 07:14:13;;;;;;;2.45;2.13;;;10.40;77.60;;;;;;5126348;27;20035;-44
2020/12/16 07:16:39;;;;;;;3.10;2.28;;;10.40;77.60;;;;;;5123629;28;20032;-44
2020/12/16 07:19:05;;;;;;;3.27;2.23;;;10.40;77.60;;;;;;5127029;27;20063;-44
2020/12/16 07:21:32;;;;;;;3.10;2.25;;;10.40;77.60;;;;;;5125817;27;20165;-45
2020/12/16 07:24:18;;;;;;;2.72;2.10;;;10.40;77.70;;;;;;5141727;27;20035;-44
2020/12/16 07:26:48;;;;;;;2.67;2.30;;;10.40;77.60;;;;;;5123266;28;20032;-44
2020/12/16 07:29:22;;;;;;;2.47;2.28;;;10.40;77.60;;;;;;5123239;28;20032;-45
2020/12/16 07:32:04;;;;;;;2.53;2.33;;;10.40;77.60;;;;;;5120735;28;20035;-44
2020/12/16 07:34:44;;;;;;;2.60;2.40;;;10.30;77.70;;;;;;5103004;28;20132;-47
2020/12/16 07:37:11;;;;;;;2.60;2.40;;;10.30;77.60;;;;;;5098900;28;20356;-45
2020/12/16 07:39:45;;;;;;;1.73;1.57;;;10.30;77.60;;;;;;5123380;28;20655;-44
2020/12/16 07:42:11;;;;;;;2.53;2.08;;;10.30;77.60;;;;;;5123278;28;20084;-44
2020/12/16 07:44:43;;;;;;;3.15;2.47;;;10.30;77.70;;;;;;5123110;28;20032;-44
2020/12/16 07:47:10;;;;;;;3.80;2.40;;;10.30;77.70;;;;;;5127120;27;20082;-44
2020/12/16 07:49:40;;;;;;;2.83;2.53;;;10.30;77.70;;;;;;5135189;27;20036;-44
2020/12/16 07:52:06;;;;;;;4.75;2.33;;;10.30;77.70;;;;;;5123210;28;20016;-44
2020/12/16 07:54:32;;;;;;;2.72;2.40;;;10.30;77.80;;;;;;5123078;28;20027;-43
2020/12/16 07:57:02;;;;;;;2.90;2.50;;;10.30;77.70;;;;;;5122918;28;20039;-43
2020/12/16 07:59:29;;;;;;;3.03;2.10;;;10.30;77.70;;;;;;5122598;28;20481;-44
2020/12/16 08:02:09;;;;;;;2.35;2.15;;;10.30;77.80;;;;;;5119402;28;20035;-44
2020/12/16 08:04:35;;;;;;;3.55;2.40;;;10.30;77.70;;;;;;5102642;28;20024;-44
2020/12/16 08:07:18;;;;;;;2.40;2.20;;;10.30;77.70;;;;;;5102419;28;20027;-45
2020/12/16 08:09:51;;;;;;;2.97;2.40;;;10.30;77.80;;;;;;5117977;28;20032;-46
2020/12/16 08:12:18;;;;;;;3.17;2.50;;;10.30;77.80;;;;;;5102371;28;20043;-45
2020/12/16 08:14:44;;;;;;;3.33;2.22;;;10.30;77.70;;;;;;5084248;28;20405;-45
2020/12/16 08:17:11;;;;;;;3.00;2.27;;;10.30;77.80;;;;;;5113796;28;20049;-45
2020/12/16 08:19:37;;;;;;;2.67;2.35;;;10.30;77.80;;;;;;5097133;28;20282;-44
2020/12/16 08:22:13;;;;;;;2.78;2.38;;;10.30;77.90;;;;;;5100422;28;20032;-44
2020/12/16 08:24:39;;;;;;;2.65;2.45;;;10.30;77.90;;;;;;5102216;28;20024;-44
2020/12/16 08:27:06;;;;;;;2.53;2.33;;;10.30;77.90;;;;;;5102296;28;20040;-45
2020/12/16 08:29:33;;;;;;;3.70;2.70;;;10.20;77.90;;;;;;5102207;28;20028;-44
2020/12/16 08:32:00;;;;;;;3.08;2.22;;;10.20;77.80;;;;;;5080059;28;20081;-44
2020/12/16 08:34:26;;;;;;;2.80;2.50;;;10.20;77.90;;;;;;5063961;28;20044;-44
2020/12/16 08:36:53;;;;;;;2.83;2.40;;;10.20;78.00;;;;;;5092346;28;20029;-43
2020/12/16 08:39:24;;;;;;;4.32;2.63;;;10.30;78.00;;;;;;5100706;28;20024;-44
2020/12/16 08:41:55;;;;;;;3.38;2.70;;;10.30;78.00;;;;;;5084350;28;20024;-45
2020/12/16 08:44:22;;;;;;;3.53;2.33;;;10.20;78.20;;;;;;5102146;28;20095;-44
2020/12/16 08:46:48;;;;;;;2.97;2.65;;;10.20;77.90;;;;;;5102268;28;20054;-44
2020/12/16 08:49:15;;;;;;;3.53;2.85;;;10.20;78.00;;;;;;5101699;28;20039;-44
2020/12/16 08:51:43;;;;;;;3.10;2.60;;;10.20;78.00;;;;;;5102052;28;20083;-43
2020/12/16 08:54:09;;;;;;;3.70;2.83;;;10.20;78.20;;;;;;5067422;28;20035;-44
2020/12/16 08:56:42;;;;;;;2.65;2.45;;;10.20;78.00;;;;;;5102275;28;20067;-44
2020/12/16 08:59:27;;;;;;;3.22;2.67;;;10.20;78.00;;;;;;5101769;28;20024;-44
2020/12/16 09:02:02;;;;;;;2.80;2.50;;;10.20;78.00;;;;;;5098825;28;20078;-44
2020/12/16 09:04:29;;;;;;;3.15;2.85;;;10.20;78.10;;;;;;5084507;28;20020;-44
2020/12/16 09:07:14;;;;;;;3.50;2.92;;;10.20;78.10;;;;;;5096072;28;20028;-44
2020/12/16 09:09:41;;;;;;;3.70;2.95;;;10.20;78.10;;;;;;5086873;28;20046;-44
2020/12/16 09:12:17;;;;;;;3.83;2.70;;;10.20;78.10;;;;;;5086909;28;20032;-44
2020/12/16 09:14:56;;;;;;;4.13;2.90;;;10.20;78.10;;;;;;5105436;28;20027;-44
2020/12/16 09:17:23;;;;;;;3.60;2.95;;;10.20;78.10;;;;;;5111354;28;20439;-45
2020/12/16 09:19:49;;;;;;;4.57;3.28;;;10.20;78.20;;;;;;5125550;28;20027;-44
2020/12/16 09:22:20;;;;;;;3.45;2.92;;;10.20;78.30;;;;;;5125931;28;20051;-45
2020/12/16 09:24:48;;;;;;;3.25;2.95;;;10.20;78.20;;;;;;5125703;28;20071;-44
2020/12/16 09:27:14;;;;;;;3.08;2.60;;;10.20;78.20;;;;;;5125741;28;20065;-43
2020/12/16 09:29:44;;;;;;;3.38;2.88;;;10.10;78.20;;;;;;5125322;28;20051;-44
2020/12/16 09:32:14;;;;;;;3.45;3.00;;;10.20;78.20;;;;;;5101562;28;20024;-43
2020/12/16 09:34:47;;;;;;;3.13;2.80;;;10.10;78.10;;;;;;5105037;28;20031;-44
2020/12/16 09:37:19;;;;;;;4.60;2.97;;;10.20;78.20;;;;;;5100439;28;20020;-44
2020/12/16 09:39:45;;;;;;;3.15;2.85;;;10.10;78.20;;;;;;5125430;27;20108;-43
2020/12/16 09:42:13;;;;;;;4.13;3.28;;;10.10;78.10;;;;;;5138517;27;20026;-44
2020/12/16 09:44:40;;;;;;;3.78;3.08;;;10.10;78.20;;;;;;5115727;28;20021;-44
2020/12/16 09:47:19;;;;;;;3.33;2.97;;;10.10;78.10;;;;;;5105007;28;20051;-44
2020/12/16 09:49:47;;;;;;;4.20;2.90;;;10.10;78.30;;;;;;5104568;28;20566;-44
2020/12/16 09:52:29;;;;;;;3.33;2.90;;;10.10;78.30;;;;;;5104951;28;20042;-43
2020/12/16 09:54:56;;;;;;;3.92;3.20;;;10.10;78.10;;;;;;5104521;28;20088;-44
2020/12/16 09:57:22;;;;;;;4.30;3.30;;;10.10;78.20;;;;;;5104704;28;20024;-45
2020/12/16 09:59:49;;;;;;;3.53;2.53;;;10.10;78.20;;;;;;5086346;28;20032;-43
2020/12/16 10:02:17;;;;;;;4.00;3.13;;;10.10;78.20;;;;;;5104332;28;20082;-44
2020/12/16 10:04:43;;;;;;;4.32;3.30;;;10.10;78.20;;;;;;5104607;28;20046;-43
2020/12/16 10:07:09;;;;;;;4.25;3.05;;;10.10;78.30;;;;;;5117286;28;20130;-43
2020/12/16 10:09:35;;;;;;;4.80;3.30;;;10.10;78.30;;;;;;5124964;28;20103;-44
2020/12/16 10:12:05;;;;;;;4.22;3.35;;;10.10;78.30;;;;;;5124740;28;20027;-44
2020/12/16 10:14:31;;;;;;;3.50;2.97;;;10.10;78.40;;;;;;5130416;27;20031;-43
2020/12/16 10:16:57;;;;;;;3.45;3.10;;;10.10;78.30;;;;;;5145184;27;20032;-44
2020/12/16 10:19:24;;;;;;;3.88;3.25;;;10.10;78.30;;;;;;5145314;27;20035;-44
2020/12/16 10:21:51;;;;;;;4.00;3.20;;;10.10;78.30;;;;;;5144860;27;20031;-44
2020/12/16 10:24:17;;;;;;;3.65;3.28;;;10.10;78.30;;;;;;5140475;27;20028;-43
2020/12/16 10:26:50;;;;;;;4.00;3.35;;;10.00;78.20;;;;;;5106271;28;20027;-44
2020/12/16 10:29:16;;;;;;;4.65;2.97;;;10.00;78.30;;;;;;5124615;28;20067;-43
2020/12/16 10:31:49;;;;;;;4.50;3.60;;;10.00;78.30;;;;;;5122377;28;20038;-43
2020/12/16 10:34:16;;;;;;;3.53;3.22;;;10.00;78.30;;;;;;5085763;28;20567;-44
2020/12/16 10:36:42;;;;;;;4.15;3.53;;;10.10;78.40;;;;;;5113069;28;20069;-43
2020/12/16 10:39:08;;;;;;;4.13;3.50;;;10.00;78.30;;;;;;5124297;28;20055;-43
2020/12/16 10:41:35;;;;;;;3.95;3.03;;;10.00;78.30;;;;;;5124231;28;20027;-44
2020/12/16 10:44:02;;;;;;;3.47;3.10;;;10.00;78.40;;;;;;5124257;28;20029;-43
2020/12/16 10:46:28;;;;;;;4.93;3.33;;;10.00;78.30;;;;;;5124090;28;20058;-43
2020/12/16 10:48:54;;;;;;;3.90;3.15;;;10.00;78.30;;;;;;5123972;28;20051;-44
2020/12/16 10:51:20;;;;;;;3.85;3.15;;;10.00;78.30;;;;;;5123870;28;20388;-44
2020/12/16 10:53:46;;;;;;;3.70;3.40;;;10.00;78.30;;;;;;5123642;28;20023;-43
2020/12/16 10:56:13;;;;;;;3.90;3.50;;;10.00;78.40;;;;;;5124112;28;20047;-44
2020/12/16 10:58:40;;;;;;;4.20;3.80;;;10.00;78.40;;;;;;5123882;28;20031;-43
2020/12/16 11:01:06;;;;;;;5.30;3.40;;;10.00;78.40;;;;;;5123731;28;20027;-45
2020/12/16 11:03:32;;;;;;;3.60;3.30;;;10.00;78.50;;;;;;5106404;28;20429;-44
2020/12/16 11:05:58;;;;;;;3.70;3.25;;;10.00;78.50;;;;;;5105980;28;20024;-44
2020/12/16 11:08:24;;;;;;;3.22;2.90;;;10.00;78.40;;;;;;5123598;28;20032;-43
2020/12/16 11:10:51;;;;;;;3.33;3.00;;;10.00;78.60;;;;;;5123802;28;20479;-43
2020/12/16 11:13:17;;;;;;;5.07;3.40;;;10.00;78.40;;;;;;5123358;28;20028;-44
2020/12/16 11:15:45;;;;;;;3.80;3.50;;;10.00;78.50;;;;;;5123698;28;20054;-45
2020/12/16 11:18:11;;;;;;;3.80;3.50;;;9.90;78.40;;;;;;5104971;28;20051;-44
2020/12/16 11:20:37;;;;;;;5.25;3.33;;;9.90;78.50;;;;;;5124404;27;20095;-43
2020/12/16 11:23:03;;;;;;;4.55;3.75;;;9.90;78.30;;;;;;5143809;27;20050;-44
2020/12/16 11:25:29;;;;;;;4.32;3.30;;;9.90;78.30;;;;;;5128386;27;20034;-44
2020/12/16 11:27:55;;;;;;;3.72;3.42;;;9.90;79.20;;;;;;5123331;28;20039;-44
2020/12/16 11:30:22;;;;;;;4.22;3.83;;;9.90;78.50;;;;;;5123555;28;20020;-44
2020/12/16 11:32:48;;;;;;;4.88;3.47;;;9.90;78.50;;;;;;5111993;28;20031;-44
2020/12/16 11:35:14;;;;;;;3.20;2.90;;;9.90;78.60;;;;;;5121426;27;20131;-44
2020/12/16 11:37:43;;;;;;;4.70;3.75;;;9.90;78.60;;;;;;5122870;28;20028;-43
2020/12/16 11:40:10;;;;;;;3.90;3.35;;;9.90;78.60;;;;;;5123065;28;20022;-44
2020/12/16 11:42:36;;;;;;;5.00;3.45;;;9.90;78.60;;;;;;5104816;28;20030;-45
2020/12/16 11:45:03;;;;;;;4.45;3.28;;;9.90;78.60;;;;;;5123022;28;20051;-44
2020/12/16 11:47:30;;;;;;;4.00;3.60;;;9.90;78.50;;;;;;5123094;28;20044;-43
2020/12/16 11:49:56;;;;;;;3.65;2.95;;;9.90;78.50;;;;;;5122891;28;20035;-44
2020/12/16 11:52:22;;;;;;;4.80;3.53;;;9.90;78.50;;;;;;5123169;28;20099;-44
2020/12/16 11:54:48;;;;;;;3.33;3.03;;;9.90;78.50;;;;;;5132055;27;20019;-44
2020/12/16 11:57:15;;;;;;;4.45;3.55;;;9.90;78.50;;;;;;5143705;27;20036;-44
2020/12/16 11:59:41;;;;;;;3.95;3.55;;;9.90;78.50;;;;;;5143626;27;20027;-43
2020/12/16 12:02:07;;;;;;;4.68;3.38;;;9.80;78.40;;;;;;5138135;27;20032;-44
2020/12/16 12:04:33;;;;;;;4.50;3.70;;;9.80;78.50;;;;;;5122611;28;20027;-43
2020/12/16 12:06:59;;;;;;;4.50;3.67;;;9.80;78.40;;;;;;5111323;28;20035;-43
2020/12/16 12:09:26;;;;;;;3.80;3.50;;;9.80;78.40;;;;;;5102526;28;20036;-43
2020/12/16 12:11:53;;;;;;;4.97;3.67;;;9.90;78.50;;;;;;5102571;28;20488;-44
2020/12/16 12:14:20;;;;;;;3.90;3.47;;;9.80;78.50;;;;;;5084275;28;20020;-43
2020/12/16 12:16:49;;;;;;;2.93;2.63;;;9.80;78.60;;;;;;5101486;28;20029;-43
2020/12/16 12:19:16;;;;;;;4.22;3.83;;;9.80;78.50;;;;;;5090110;28;20137;-43
2020/12/16 12:21:42;;;;;;;3.90;3.50;;;9.80;78.50;;;;;;5102492;28;20032;-43
2020/12/16 12:24:08;;;;;;;3.40;3.10;;;9.80;78.50;;;;;;5101952;28;20031;-43
2020/12/16 12:26:34;;;;;;;3.80;3.40;;;9.80;78.50;;;;;;5102377;28;20034;-44
2020/12/16 12:29:00;;;;;;;3.35;2.85;;;9.80;78.60;;;;;;5102152;28;20042;-51
2020/12/16 12:31:26;;;;;;;3.45;2.90;;;9.80;78.50;;;;;;5102331;28;20031;-43
2020/12/16 12:33:52;;;;;;;4.00;3.25;;;9.80;78.50;;;;;;5081937;28;20621;-44
2020/12/16 12:36:19;;;;;;;3.90;3.22;;;9.80;78.50;;;;;;5087447;28;20039;-43
2020/12/16 12:38:45;;;;;;;3.78;3.30;;;9.80;78.50;;;;;;5104268;28;20027;-43
2020/12/16 12:41:11;;;;;;;3.75;3.35;;;9.80;78.60;;;;;;5106074;28;20028;-43
2020/12/16 12:43:37;;;;;;;3.60;3.22;;;9.80;78.60;;;;;;5105759;28;20030;-43
2020/12/16 12:46:03;;;;;;;4.25;3.50;;;9.80;78.60;;;;;;5106180;28;20027;-43
2020/12/16 12:48:30;;;;;;;2.58;2.25;;;9.80;78.70;;;;;;5106188;28;20038;-43
2020/12/16 12:50:56;;;;;;;3.88;3.47;;;9.80;78.70;;;;;;5087880;28;20031;-43
2020/12/16 12:53:22;;;;;;;3.95;3.55;;;9.80;78.60;;;;;;5105754;28;20032;-44